sensor_id;sensor_type;location;lat;lon;timestamp;P1;durP1;ratioP1;P2;durP2;ratioP2
71566;SDS011;59403;47.456;19.120;2022-12-10T00:01:27;19.85;;;11.38;;
71566;SDS011;59403;47.456;19.120;2022-12-10T00:03:54;20.55;;;11.38;;
71566;SDS011;59403;47.456;19.120;2022-12-10T00:06:22;20.90;;;11.70;;
71566;SDS011;59403;47.456;19.120;2022-12-10T00:08:49;20.23;;;11.80;;
71566;SDS011;59403;47.456;19.120;2022-12-10T00:11:17;19.00;;;11.20;;
71566;SDS011;59403;47.456;19.120;2022-12-10T00:13:46;20.42;;;11.48;;
71566;SDS011;59403;47.456;19.120;2022-12-10T00:16:16;20.88;;;12.18;;
71566;SDS011;59403;47.456;19.120;2022-12-10T00:18:45;21.70;;;11.17;;
71566;SDS011;59403;47.456;19.120;2022-12-10T00:21:15;19.73;;;11.40;;
71566;SDS011;59403;47.456;19.120;2022-12-10T00:23:44;20.90;;;11.65;;
71566;SDS011;59403;47.456;19.120;2022-12-10T00:26:12;19.48;;;10.95;;
71566;SDS011;59403;47.456;19.120;2022-12-10T00:28:41;21.33;;;11.65;;
71566;SDS011;59403;47.456;19.120;2022-12-10T00:31:10;19.87;;;11.87;;
71566;SDS011;59403;47.456;19.120;2022-12-10T00:33:40;22.17;;;11.52;;
71566;SDS011;59403;47.456;19.120;2022-12-10T00:36:08;21.70;;;12.45;;
71566;SDS011;59403;47.456;19.120;2022-12-10T00:38:37;19.75;;;11.23;;
71566;SDS011;59403;47.456;19.120;2022-12-10T00:41:05;20.58;;;11.25;;
71566;SDS011;59403;47.456;19.120;2022-12-10T00:43:32;20.90;;;11.43;;
71566;SDS011;59403;47.456;19.120;2022-12-10T00:45:59;20.67;;;11.15;;
71566;SDS011;59403;47.456;19.120;2022-12-10T00:48:26;22.15;;;11.63;;
71566;SDS011;59403;47.456;19.120;2022-12-10T00:50:59;17.80;;;10.95;;
71566;SDS011;59403;47.456;19.120;2022-12-10T00:53:27;20.77;;;12.25;;
71566;SDS011;59403;47.456;19.120;2022-12-10T00:55:56;19.83;;;11.23;;
71566;SDS011;59403;47.456;19.120;2022-12-10T00:58:26;20.25;;;11.07;;
71566;SDS011;59403;47.456;19.120;2022-12-10T01:00:53;19.75;;;11.15;;
71566;SDS011;59403;47.456;19.120;2022-12-10T01:03:20;19.70;;;11.25;;
71566;SDS011;59403;47.456;19.120;2022-12-10T01:05:47;20.92;;;11.55;;
71566;SDS011;59403;47.456;19.120;2022-12-10T01:08:15;19.00;;;11.27;;
71566;SDS011;59403;47.456;19.120;2022-12-10T01:10:42;19.00;;;10.95;;
71566;SDS011;59403;47.456;19.120;2022-12-10T01:13:11;22.52;;;12.02;;
71566;SDS011;59403;47.456;19.120;2022-12-10T01:15:38;20.75;;;11.12;;
71566;SDS011;59403;47.456;19.120;2022-12-10T01:18:05;18.37;;;11.50;;
71566;SDS011;59403;47.456;19.120;2022-12-10T01:20:34;18.20;;;11.37;;
71566;SDS011;59403;47.456;19.120;2022-12-10T01:23:02;20.12;;;11.23;;
71566;SDS011;59403;47.456;19.120;2022-12-10T01:25:31;19.80;;;11.18;;
71566;SDS011;59403;47.456;19.120;2022-12-10T01:27:58;19.08;;;11.32;;
71566;SDS011;59403;47.456;19.120;2022-12-10T01:30:25;19.55;;;10.88;;
71566;SDS011;59403;47.456;19.120;2022-12-10T01:32:52;18.13;;;11.30;;
71566;SDS011;59403;47.456;19.120;2022-12-10T01:35:19;19.70;;;11.15;;
71566;SDS011;59403;47.456;19.120;2022-12-10T01:37:45;18.73;;;10.38;;
71566;SDS011;59403;47.456;19.120;2022-12-10T01:40:12;17.75;;;11.48;;
71566;SDS011;59403;47.456;19.120;2022-12-10T01:42:43;16.55;;;10.20;;
71566;SDS011;59403;47.456;19.120;2022-12-10T01:45:10;17.13;;;10.23;;
71566;SDS011;59403;47.456;19.120;2022-12-10T01:47:38;17.67;;;10.50;;
71566;SDS011;59403;47.456;19.120;2022-12-10T01:50:06;18.83;;;11.45;;
71566;SDS011;59403;47.456;19.120;2022-12-10T01:52:34;18.12;;;11.20;;
71566;SDS011;59403;47.456;19.120;2022-12-10T01:55:02;16.95;;;10.50;;
71566;SDS011;59403;47.456;19.120;2022-12-10T01:57:33;19.00;;;10.70;;
71566;SDS011;59403;47.456;19.120;2022-12-10T02:00:03;18.62;;;10.75;;
71566;SDS011;59403;47.456;19.120;2022-12-10T02:02:35;17.40;;;10.60;;
71566;SDS011;59403;47.456;19.120;2022-12-10T02:05:12;21.50;;;10.60;;
71566;SDS011;59403;47.456;19.120;2022-12-10T02:07:52;17.50;;;10.45;;
71566;SDS011;59403;47.456;19.120;2022-12-10T02:10:30;18.17;;;10.80;;
71566;SDS011;59403;47.456;19.120;2022-12-10T02:13:11;17.27;;;10.20;;
71566;SDS011;59403;47.456;19.120;2022-12-10T02:15:44;17.02;;;10.48;;
71566;SDS011;59403;47.456;19.120;2022-12-10T02:18:17;17.35;;;10.48;;
71566;SDS011;59403;47.456;19.120;2022-12-10T02:20:48;17.30;;;10.13;;
71566;SDS011;59403;47.456;19.120;2022-12-10T02:23:18;17.67;;;9.63;;
71566;SDS011;59403;47.456;19.120;2022-12-10T02:25:49;17.62;;;9.50;;
71566;SDS011;59403;47.456;19.120;2022-12-10T02:28:24;18.40;;;10.55;;
71566;SDS011;59403;47.456;19.120;2022-12-10T02:30:58;17.85;;;10.27;;
71566;SDS011;59403;47.456;19.120;2022-12-10T02:33:27;19.65;;;11.30;;
71566;SDS011;59403;47.456;19.120;2022-12-10T02:35:57;18.00;;;10.70;;
71566;SDS011;59403;47.456;19.120;2022-12-10T02:38:25;20.23;;;11.50;;
71566;SDS011;59403;47.456;19.120;2022-12-10T02:40:57;20.23;;;11.63;;
71566;SDS011;59403;47.456;19.120;2022-12-10T02:43:26;19.65;;;10.85;;
71566;SDS011;59403;47.456;19.120;2022-12-10T02:45:55;19.80;;;11.23;;
71566;SDS011;59403;47.456;19.120;2022-12-10T02:48:25;18.30;;;10.90;;
71566;SDS011;59403;47.456;19.120;2022-12-10T02:50:52;16.98;;;10.73;;
71566;SDS011;59403;47.456;19.120;2022-12-10T02:53:19;18.73;;;10.85;;
71566;SDS011;59403;47.456;19.120;2022-12-10T02:55:51;19.75;;;11.38;;
71566;SDS011;59403;47.456;19.120;2022-12-10T02:58:29;18.52;;;11.65;;
71566;SDS011;59403;47.456;19.120;2022-12-10T03:01:06;26.17;;;11.90;;
71566;SDS011;59403;47.456;19.120;2022-12-10T03:03:42;17.98;;;11.30;;
71566;SDS011;59403;47.456;19.120;2022-12-10T03:06:16;18.85;;;10.65;;
71566;SDS011;59403;47.456;19.120;2022-12-10T03:08:48;19.80;;;11.30;;
71566;SDS011;59403;47.456;19.120;2022-12-10T03:11:20;21.02;;;11.45;;
71566;SDS011;59403;47.456;19.120;2022-12-10T03:13:50;21.73;;;11.20;;
71566;SDS011;59403;47.456;19.120;2022-12-10T03:16:21;20.10;;;11.00;;
71566;SDS011;59403;47.456;19.120;2022-12-10T03:18:52;20.98;;;10.75;;
71566;SDS011;59403;47.456;19.120;2022-12-10T03:21:23;18.73;;;10.35;;
71566;SDS011;59403;47.456;19.120;2022-12-10T03:23:53;20.60;;;11.38;;
71566;SDS011;59403;47.456;19.120;2022-12-10T03:26:20;19.30;;;10.50;;
71566;SDS011;59403;47.456;19.120;2022-12-10T03:28:49;19.42;;;10.77;;
71566;SDS011;59403;47.456;19.120;2022-12-10T03:31:20;18.87;;;11.43;;
71566;SDS011;59403;47.456;19.120;2022-12-10T03:33:48;21.30;;;11.80;;
71566;SDS011;59403;47.456;19.120;2022-12-10T03:36:17;19.45;;;11.68;;
71566;SDS011;59403;47.456;19.120;2022-12-10T03:38:45;21.47;;;11.27;;
71566;SDS011;59403;47.456;19.120;2022-12-10T03:41:12;18.08;;;10.55;;
71566;SDS011;59403;47.456;19.120;2022-12-10T03:43:52;15.07;;;9.40;;
71566;SDS011;59403;47.456;19.120;2022-12-10T03:46:20;12.80;;;8.27;;
71566;SDS011;59403;47.456;19.120;2022-12-10T03:48:47;11.85;;;7.35;;
71566;SDS011;59403;47.456;19.120;2022-12-10T03:51:14;12.10;;;7.10;;
71566;SDS011;59403;47.456;19.120;2022-12-10T03:53:42;9.68;;;5.35;;
71566;SDS011;59403;47.456;19.120;2022-12-10T03:56:10;7.40;;;4.95;;
71566;SDS011;59403;47.456;19.120;2022-12-10T03:58:37;7.37;;;4.65;;
71566;SDS011;59403;47.456;19.120;2022-12-10T04:01:04;8.35;;;5.62;;
71566;SDS011;59403;47.456;19.120;2022-12-10T04:03:33;9.23;;;5.17;;
71566;SDS011;59403;47.456;19.120;2022-12-10T04:06:01;10.43;;;5.75;;
71566;SDS011;59403;47.456;19.120;2022-12-10T04:08:28;12.25;;;6.65;;
71566;SDS011;59403;47.456;19.120;2022-12-10T04:11:02;12.35;;;6.47;;
71566;SDS011;59403;47.456;19.120;2022-12-10T04:13:31;12.43;;;6.65;;
71566;SDS011;59403;47.456;19.120;2022-12-10T04:16:17;13.33;;;6.70;;
71566;SDS011;59403;47.456;19.120;2022-12-10T04:18:53;10.82;;;6.45;;
71566;SDS011;59403;47.456;19.120;2022-12-10T04:21:20;12.50;;;6.50;;
71566;SDS011;59403;47.456;19.120;2022-12-10T04:24:05;11.70;;;6.25;;
71566;SDS011;59403;47.456;19.120;2022-12-10T04:26:52;14.45;;;7.32;;
71566;SDS011;59403;47.456;19.120;2022-12-10T04:29:19;13.87;;;7.43;;
71566;SDS011;59403;47.456;19.120;2022-12-10T04:31:46;13.52;;;6.40;;
71566;SDS011;59403;47.456;19.120;2022-12-10T04:34:13;15.73;;;7.15;;
71566;SDS011;59403;47.456;19.120;2022-12-10T04:36:40;15.25;;;6.70;;
71566;SDS011;59403;47.456;19.120;2022-12-10T04:39:07;13.40;;;6.25;;
71566;SDS011;59403;47.456;19.120;2022-12-10T04:41:36;11.80;;;5.63;;
71566;SDS011;59403;47.456;19.120;2022-12-10T04:44:05;14.73;;;6.37;;
71566;SDS011;59403;47.456;19.120;2022-12-10T04:46:32;13.52;;;5.55;;
71566;SDS011;59403;47.456;19.120;2022-12-10T04:48:59;12.10;;;5.55;;
71566;SDS011;59403;47.456;19.120;2022-12-10T04:51:26;12.73;;;5.57;;
71566;SDS011;59403;47.456;19.120;2022-12-10T04:53:53;12.00;;;5.07;;
71566;SDS011;59403;47.456;19.120;2022-12-10T04:56:20;14.63;;;5.97;;
71566;SDS011;59403;47.456;19.120;2022-12-10T04:58:47;11.73;;;6.22;;
71566;SDS011;59403;47.456;19.120;2022-12-10T05:01:15;13.60;;;5.85;;
71566;SDS011;59403;47.456;19.120;2022-12-10T05:03:43;12.32;;;6.10;;
71566;SDS011;59403;47.456;19.120;2022-12-10T05:06:11;10.93;;;5.40;;
71566;SDS011;59403;47.456;19.120;2022-12-10T05:08:39;11.73;;;5.87;;
71566;SDS011;59403;47.456;19.120;2022-12-10T05:11:07;11.75;;;5.47;;
71566;SDS011;59403;47.456;19.120;2022-12-10T05:13:38;10.45;;;5.30;;
71566;SDS011;59403;47.456;19.120;2022-12-10T05:16:06;13.23;;;6.00;;
71566;SDS011;59403;47.456;19.120;2022-12-10T05:18:36;11.30;;;5.30;;
71566;SDS011;59403;47.456;19.120;2022-12-10T05:21:05;12.05;;;5.37;;
71566;SDS011;59403;47.456;19.120;2022-12-10T05:23:33;9.73;;;4.85;;
71566;SDS011;59403;47.456;19.120;2022-12-10T05:26:03;11.70;;;5.47;;
71566;SDS011;59403;47.456;19.120;2022-12-10T05:28:31;12.68;;;5.53;;
71566;SDS011;59403;47.456;19.120;2022-12-10T05:31:00;13.57;;;4.90;;
71566;SDS011;59403;47.456;19.120;2022-12-10T05:33:27;14.07;;;6.12;;
71566;SDS011;59403;47.456;19.120;2022-12-10T05:35:56;11.85;;;6.00;;
71566;SDS011;59403;47.456;19.120;2022-12-10T05:38:25;13.40;;;5.72;;
71566;SDS011;59403;47.456;19.120;2022-12-10T05:40:53;12.90;;;5.47;;
71566;SDS011;59403;47.456;19.120;2022-12-10T05:43:20;14.43;;;6.13;;
71566;SDS011;59403;47.456;19.120;2022-12-10T05:45:47;14.48;;;5.65;;
71566;SDS011;59403;47.456;19.120;2022-12-10T05:48:14;14.25;;;6.15;;
71566;SDS011;59403;47.456;19.120;2022-12-10T05:50:42;16.58;;;7.15;;
71566;SDS011;59403;47.456;19.120;2022-12-10T05:53:10;15.48;;;6.65;;
71566;SDS011;59403;47.456;19.120;2022-12-10T05:55:39;15.93;;;7.27;;
71566;SDS011;59403;47.456;19.120;2022-12-10T05:58:06;15.63;;;6.75;;
71566;SDS011;59403;47.456;19.120;2022-12-10T06:00:33;17.02;;;7.05;;
71566;SDS011;59403;47.456;19.120;2022-12-10T06:03:00;17.60;;;7.55;;
71566;SDS011;59403;47.456;19.120;2022-12-10T06:05:27;15.38;;;6.82;;
71566;SDS011;59403;47.456;19.120;2022-12-10T06:07:54;17.27;;;7.50;;
71566;SDS011;59403;47.456;19.120;2022-12-10T06:10:22;16.70;;;7.25;;
71566;SDS011;59403;47.456;19.120;2022-12-10T06:12:49;16.10;;;7.85;;
71566;SDS011;59403;47.456;19.120;2022-12-10T06:15:16;19.35;;;8.10;;
71566;SDS011;59403;47.456;19.120;2022-12-10T06:17:43;17.95;;;7.53;;
71566;SDS011;59403;47.456;19.120;2022-12-10T06:20:10;17.73;;;7.60;;
71566;SDS011;59403;47.456;19.120;2022-12-10T06:22:37;19.62;;;8.32;;
71566;SDS011;59403;47.456;19.120;2022-12-10T06:25:05;19.87;;;9.43;;
71566;SDS011;59403;47.456;19.120;2022-12-10T06:27:33;19.65;;;8.95;;
71566;SDS011;59403;47.456;19.120;2022-12-10T06:30:00;21.05;;;8.88;;
71566;SDS011;59403;47.456;19.120;2022-12-10T06:32:27;19.17;;;8.50;;
71566;SDS011;59403;47.456;19.120;2022-12-10T06:34:54;19.90;;;8.73;;
71566;SDS011;59403;47.456;19.120;2022-12-10T06:37:21;21.35;;;9.13;;
71566;SDS011;59403;47.456;19.120;2022-12-10T06:39:49;21.95;;;9.57;;
71566;SDS011;59403;47.456;19.120;2022-12-10T06:42:16;21.95;;;8.93;;
71566;SDS011;59403;47.456;19.120;2022-12-10T06:44:44;24.17;;;9.83;;
71566;SDS011;59403;47.456;19.120;2022-12-10T06:47:13;23.33;;;10.40;;
71566;SDS011;59403;47.456;19.120;2022-12-10T06:49:40;22.80;;;10.45;;
71566;SDS011;59403;47.456;19.120;2022-12-10T06:52:07;20.58;;;9.82;;
71566;SDS011;59403;47.456;19.120;2022-12-10T06:54:34;21.98;;;10.27;;
71566;SDS011;59403;47.456;19.120;2022-12-10T06:57:00;21.23;;;9.67;;
71566;SDS011;59403;47.456;19.120;2022-12-10T06:59:27;19.75;;;9.70;;
71566;SDS011;59403;47.456;19.120;2022-12-10T07:01:56;18.95;;;9.40;;
71566;SDS011;59403;47.456;19.120;2022-12-10T07:04:23;17.33;;;8.70;;
71566;SDS011;59403;47.456;19.120;2022-12-10T07:06:50;17.80;;;9.32;;
71566;SDS011;59403;47.456;19.120;2022-12-10T07:09:17;16.83;;;8.73;;
71566;SDS011;59403;47.456;19.120;2022-12-10T07:11:44;16.70;;;8.57;;
71566;SDS011;59403;47.456;19.120;2022-12-10T07:14:11;16.73;;;8.23;;
71566;SDS011;59403;47.456;19.120;2022-12-10T07:16:40;16.25;;;8.02;;
71566;SDS011;59403;47.456;19.120;2022-12-10T07:19:09;15.20;;;8.15;;
71566;SDS011;59403;47.456;19.120;2022-12-10T07:21:38;15.60;;;8.00;;
71566;SDS011;59403;47.456;19.120;2022-12-10T07:24:07;16.98;;;8.60;;
71566;SDS011;59403;47.456;19.120;2022-12-10T07:26:38;17.25;;;8.70;;
71566;SDS011;59403;47.456;19.120;2022-12-10T07:29:06;17.83;;;9.10;;
71566;SDS011;59403;47.456;19.120;2022-12-10T07:31:33;15.32;;;8.50;;
71566;SDS011;59403;47.456;19.120;2022-12-10T07:34:01;13.60;;;7.87;;
71566;SDS011;59403;47.456;19.120;2022-12-10T07:36:30;14.93;;;8.07;;
71566;SDS011;59403;47.456;19.120;2022-12-10T07:38:57;16.87;;;9.32;;
71566;SDS011;59403;47.456;19.120;2022-12-10T07:41:24;17.23;;;8.80;;
71566;SDS011;59403;47.456;19.120;2022-12-10T07:43:51;16.98;;;9.32;;
71566;SDS011;59403;47.456;19.120;2022-12-10T07:46:19;16.20;;;8.90;;
71566;SDS011;59403;47.456;19.120;2022-12-10T07:48:48;17.12;;;9.15;;
71566;SDS011;59403;47.456;19.120;2022-12-10T07:51:16;17.17;;;9.68;;
71566;SDS011;59403;47.456;19.120;2022-12-10T07:53:47;17.77;;;9.70;;
71566;SDS011;59403;47.456;19.120;2022-12-10T07:56:14;22.33;;;10.35;;
71566;SDS011;59403;47.456;19.120;2022-12-10T07:58:41;20.97;;;10.63;;
71566;SDS011;59403;47.456;19.120;2022-12-10T08:01:09;19.30;;;9.98;;
71566;SDS011;59403;47.456;19.120;2022-12-10T08:03:38;17.67;;;9.63;;
71566;SDS011;59403;47.456;19.120;2022-12-10T08:06:06;19.58;;;10.20;;
71566;SDS011;59403;47.456;19.120;2022-12-10T08:08:35;19.20;;;10.63;;
71566;SDS011;59403;47.456;19.120;2022-12-10T08:11:04;20.13;;;11.10;;
71566;SDS011;59403;47.456;19.120;2022-12-10T08:13:32;18.87;;;10.15;;
71566;SDS011;59403;47.456;19.120;2022-12-10T08:16:01;20.77;;;10.60;;
71566;SDS011;59403;47.456;19.120;2022-12-10T08:18:29;20.62;;;10.52;;
71566;SDS011;59403;47.456;19.120;2022-12-10T08:20:56;20.73;;;10.75;;
71566;SDS011;59403;47.456;19.120;2022-12-10T08:23:23;21.97;;;11.13;;
71566;SDS011;59403;47.456;19.120;2022-12-10T08:25:50;20.52;;;10.73;;
71566;SDS011;59403;47.456;19.120;2022-12-10T08:28:18;21.33;;;11.23;;
71566;SDS011;59403;47.456;19.120;2022-12-10T08:30:46;21.75;;;11.40;;
71566;SDS011;59403;47.456;19.120;2022-12-10T08:33:13;19.92;;;11.00;;
71566;SDS011;59403;47.456;19.120;2022-12-10T08:35:40;21.00;;;10.33;;
71566;SDS011;59403;47.456;19.120;2022-12-10T08:38:07;21.67;;;11.18;;
71566;SDS011;59403;47.456;19.120;2022-12-10T08:40:34;18.35;;;10.50;;
71566;SDS011;59403;47.456;19.120;2022-12-10T08:43:04;19.37;;;10.70;;
71566;SDS011;59403;47.456;19.120;2022-12-10T08:45:32;20.62;;;10.68;;
71566;SDS011;59403;47.456;19.120;2022-12-10T08:48:00;21.37;;;10.90;;
71566;SDS011;59403;47.456;19.120;2022-12-10T08:50:28;20.02;;;10.30;;
71566;SDS011;59403;47.456;19.120;2022-12-10T08:52:54;20.20;;;10.68;;
71566;SDS011;59403;47.456;19.120;2022-12-10T08:55:21;21.00;;;11.32;;
71566;SDS011;59403;47.456;19.120;2022-12-10T08:57:48;25.42;;;12.45;;
71566;SDS011;59403;47.456;19.120;2022-12-10T09:00:15;22.10;;;11.13;;
71566;SDS011;59403;47.456;19.120;2022-12-10T09:02:45;22.17;;;11.27;;
71566;SDS011;59403;47.456;19.120;2022-12-10T09:05:12;22.00;;;11.45;;
71566;SDS011;59403;47.456;19.120;2022-12-10T09:07:39;19.83;;;10.63;;
71566;SDS011;59403;47.456;19.120;2022-12-10T09:10:06;21.62;;;11.52;;
71566;SDS011;59403;47.456;19.120;2022-12-10T09:12:35;20.57;;;9.73;;
71566;SDS011;59403;47.456;19.120;2022-12-10T09:15:03;18.40;;;9.90;;
71566;SDS011;59403;47.456;19.120;2022-12-10T09:17:30;20.90;;;10.70;;
71566;SDS011;59403;47.456;19.120;2022-12-10T09:19:58;17.67;;;8.95;;
71566;SDS011;59403;47.456;19.120;2022-12-10T09:22:25;18.35;;;9.40;;
71566;SDS011;59403;47.456;19.120;2022-12-10T09:24:52;21.40;;;9.90;;
71566;SDS011;59403;47.456;19.120;2022-12-10T09:27:19;19.45;;;9.50;;
71566;SDS011;59403;47.456;19.120;2022-12-10T09:29:46;20.00;;;10.02;;
71566;SDS011;59403;47.456;19.120;2022-12-10T09:32:13;22.15;;;10.10;;
71566;SDS011;59403;47.456;19.120;2022-12-10T09:34:40;20.37;;;10.60;;
71566;SDS011;59403;47.456;19.120;2022-12-10T09:37:08;21.10;;;10.63;;
71566;SDS011;59403;47.456;19.120;2022-12-10T09:39:35;20.08;;;9.73;;
71566;SDS011;59403;47.456;19.120;2022-12-10T09:42:13;19.90;;;10.25;;
71566;SDS011;59403;47.456;19.120;2022-12-10T09:44:56;20.42;;;9.77;;
71566;SDS011;59403;47.456;19.120;2022-12-10T09:47:29;19.67;;;10.27;;
71566;SDS011;59403;47.456;19.120;2022-12-10T09:50:02;19.77;;;10.10;;
71566;SDS011;59403;47.456;19.120;2022-12-10T09:52:40;18.67;;;9.15;;
71566;SDS011;59403;47.456;19.120;2022-12-10T09:55:11;20.27;;;9.50;;
71566;SDS011;59403;47.456;19.120;2022-12-10T09:57:41;21.67;;;9.07;;
71566;SDS011;59403;47.456;19.120;2022-12-10T10:00:16;18.83;;;9.43;;
71566;SDS011;59403;47.456;19.120;2022-12-10T10:02:46;16.23;;;8.83;;
71566;SDS011;59403;47.456;19.120;2022-12-10T10:05:16;18.27;;;8.70;;
71566;SDS011;59403;47.456;19.120;2022-12-10T10:07:50;19.75;;;9.25;;
71566;SDS011;59403;47.456;19.120;2022-12-10T10:10:21;20.92;;;10.05;;
71566;SDS011;59403;47.456;19.120;2022-12-10T10:12:51;22.45;;;10.32;;
71566;SDS011;59403;47.456;19.120;2022-12-10T10:15:24;21.33;;;11.00;;
71566;SDS011;59403;47.456;19.120;2022-12-10T10:17:56;22.90;;;11.65;;
71566;SDS011;59403;47.456;19.120;2022-12-10T10:20:28;24.20;;;10.90;;
71566;SDS011;59403;47.456;19.120;2022-12-10T10:22:57;22.08;;;10.65;;
71566;SDS011;59403;47.456;19.120;2022-12-10T10:25:25;20.50;;;9.82;;
71566;SDS011;59403;47.456;19.120;2022-12-10T10:27:53;20.80;;;9.53;;
71566;SDS011;59403;47.456;19.120;2022-12-10T10:30:21;20.20;;;9.75;;
71566;SDS011;59403;47.456;19.120;2022-12-10T10:32:50;20.83;;;10.50;;
71566;SDS011;59403;47.456;19.120;2022-12-10T10:35:22;21.17;;;10.30;;
71566;SDS011;59403;47.456;19.120;2022-12-10T10:37:52;21.77;;;10.45;;
71566;SDS011;59403;47.456;19.120;2022-12-10T10:40:26;21.97;;;10.23;;
71566;SDS011;59403;47.456;19.120;2022-12-10T10:42:56;20.77;;;9.55;;
71566;SDS011;59403;47.456;19.120;2022-12-10T10:45:32;21.30;;;9.48;;
71566;SDS011;59403;47.456;19.120;2022-12-10T10:48:06;20.50;;;9.52;;
71566;SDS011;59403;47.456;19.120;2022-12-10T10:50:38;22.52;;;10.60;;
71566;SDS011;59403;47.456;19.120;2022-12-10T10:53:30;23.83;;;11.23;;
71566;SDS011;59403;47.456;19.120;2022-12-10T10:56:03;23.15;;;11.65;;
71566;SDS011;59403;47.456;19.120;2022-12-10T10:58:33;25.00;;;11.75;;
71566;SDS011;59403;47.456;19.120;2022-12-10T11:01:01;22.75;;;10.75;;
71566;SDS011;59403;47.456;19.120;2022-12-10T11:03:30;23.92;;;11.50;;
71566;SDS011;59403;47.456;19.120;2022-12-10T11:06:00;25.53;;;11.67;;
71566;SDS011;59403;47.456;19.120;2022-12-10T11:08:33;22.85;;;11.10;;
71566;SDS011;59403;47.456;19.120;2022-12-10T11:11:04;23.55;;;11.35;;
71566;SDS011;59403;47.456;19.120;2022-12-10T11:13:33;26.25;;;11.23;;
71566;SDS011;59403;47.456;19.120;2022-12-10T11:16:16;24.05;;;10.77;;
71566;SDS011;59403;47.456;19.120;2022-12-10T11:18:52;26.73;;;11.03;;
71566;SDS011;59403;47.456;19.120;2022-12-10T11:21:22;25.58;;;10.77;;
71566;SDS011;59403;47.456;19.120;2022-12-10T11:23:52;27.80;;;11.40;;
71566;SDS011;59403;47.456;19.120;2022-12-10T11:29:37;27.17;;;12.13;;
71566;SDS011;59403;47.456;19.120;2022-12-10T11:32:25;27.50;;;12.10;;
71566;SDS011;59403;47.456;19.120;2022-12-10T11:35:09;25.05;;;11.57;;
71566;SDS011;59403;47.456;19.120;2022-12-10T11:37:42;27.08;;;12.48;;
71566;SDS011;59403;47.456;19.120;2022-12-10T11:40:26;26.12;;;11.12;;
71566;SDS011;59403;47.456;19.120;2022-12-10T11:43:15;26.50;;;11.95;;
71566;SDS011;59403;47.456;19.120;2022-12-10T11:45:56;23.97;;;11.33;;
71566;SDS011;59403;47.456;19.120;2022-12-10T11:48:47;24.45;;;11.30;;
71566;SDS011;59403;47.456;19.120;2022-12-10T11:51:24;24.10;;;12.00;;
71566;SDS011;59403;47.456;19.120;2022-12-10T11:54:00;25.77;;;12.73;;
71566;SDS011;59403;47.456;19.120;2022-12-10T11:56:40;24.15;;;12.40;;
71566;SDS011;59403;47.456;19.120;2022-12-10T11:59:16;25.13;;;11.33;;
71566;SDS011;59403;47.456;19.120;2022-12-10T12:02:04;24.90;;;11.60;;
71566;SDS011;59403;47.456;19.120;2022-12-10T12:04:51;25.30;;;11.85;;
71566;SDS011;59403;47.456;19.120;2022-12-10T12:07:33;26.48;;;12.63;;
71566;SDS011;59403;47.456;19.120;2022-12-10T12:13:12;29.43;;;13.93;;
71566;SDS011;59403;47.456;19.120;2022-12-10T12:15:44;29.15;;;13.60;;
71566;SDS011;59403;47.456;19.120;2022-12-10T12:18:24;31.10;;;14.65;;
71566;SDS011;59403;47.456;19.120;2022-12-10T12:20:58;29.85;;;14.05;;
71566;SDS011;59403;47.456;19.120;2022-12-10T12:23:31;30.55;;;14.65;;
71566;SDS011;59403;47.456;19.120;2022-12-10T12:26:03;32.37;;;15.07;;
71566;SDS011;59403;47.456;19.120;2022-12-10T12:28:40;31.98;;;15.77;;
71566;SDS011;59403;47.456;19.120;2022-12-10T12:31:12;36.92;;;16.90;;
71566;SDS011;59403;47.456;19.120;2022-12-10T12:33:42;37.97;;;17.67;;
71566;SDS011;59403;47.456;19.120;2022-12-10T12:36:14;40.10;;;18.95;;
71566;SDS011;59403;47.456;19.120;2022-12-10T12:38:46;39.20;;;18.57;;
71566;SDS011;59403;47.456;19.120;2022-12-10T12:41:25;40.28;;;19.15;;
71566;SDS011;59403;47.456;19.120;2022-12-10T12:44:00;41.10;;;18.12;;
71566;SDS011;59403;47.456;19.120;2022-12-10T12:46:37;42.05;;;18.60;;
71566;SDS011;59403;47.456;19.120;2022-12-10T12:49:09;40.80;;;19.08;;
71566;SDS011;59403;47.456;19.120;2022-12-10T12:51:44;44.20;;;19.00;;
71566;SDS011;59403;47.456;19.120;2022-12-10T12:54:15;43.08;;;19.00;;
71566;SDS011;59403;47.456;19.120;2022-12-10T12:59:47;42.95;;;18.73;;
71566;SDS011;59403;47.456;19.120;2022-12-10T13:02:22;42.97;;;20.15;;
71566;SDS011;59403;47.456;19.120;2022-12-10T13:05:12;43.17;;;18.53;;
71566;SDS011;59403;47.456;19.120;2022-12-10T13:07:40;42.45;;;18.60;;
71566;SDS011;59403;47.456;19.120;2022-12-10T13:10:08;43.15;;;18.62;;
71566;SDS011;59403;47.456;19.120;2022-12-10T13:12:45;41.20;;;18.20;;
71566;SDS011;59403;47.456;19.120;2022-12-10T13:15:17;40.88;;;18.35;;
71566;SDS011;59403;47.456;19.120;2022-12-10T13:18:02;39.43;;;18.23;;
71566;SDS011;59403;47.456;19.120;2022-12-10T13:20:35;41.67;;;18.30;;
71566;SDS011;59403;47.456;19.120;2022-12-10T13:25:59;36.78;;;16.75;;
71566;SDS011;59403;47.456;19.120;2022-12-10T13:28:38;40.55;;;18.25;;
71566;SDS011;59403;47.456;19.120;2022-12-10T13:31:32;39.87;;;17.07;;
71566;SDS011;59403;47.456;19.120;2022-12-10T13:34:20;40.10;;;17.70;;
71566;SDS011;59403;47.456;19.120;2022-12-10T13:40:00;41.97;;;18.75;;
71566;SDS011;59403;47.456;19.120;2022-12-10T13:42:42;41.85;;;18.98;;
71566;SDS011;59403;47.456;19.120;2022-12-10T13:45:30;38.23;;;17.50;;
71566;SDS011;59403;47.456;19.120;2022-12-10T13:51:12;39.75;;;18.40;;
71566;SDS011;59403;47.456;19.120;2022-12-10T13:53:50;38.85;;;18.23;;
71566;SDS011;59403;47.456;19.120;2022-12-10T13:56:32;39.22;;;18.75;;
71566;SDS011;59403;47.456;19.120;2022-12-10T13:59:10;39.77;;;18.60;;
71566;SDS011;59403;47.456;19.120;2022-12-10T14:01:46;38.65;;;17.60;;
71566;SDS011;59403;47.456;19.120;2022-12-10T14:04:31;40.58;;;19.75;;
71566;SDS011;59403;47.456;19.120;2022-12-10T14:07:07;36.88;;;17.02;;
71566;SDS011;59403;47.456;19.120;2022-12-10T14:09:38;41.85;;;18.15;;
71566;SDS011;59403;47.456;19.120;2022-12-10T14:12:13;40.63;;;17.70;;
71566;SDS011;59403;47.456;19.120;2022-12-10T14:14:43;40.05;;;17.60;;
71566;SDS011;59403;47.456;19.120;2022-12-10T14:17:15;32.70;;;16.10;;
71566;SDS011;59403;47.456;19.120;2022-12-10T14:19:46;33.25;;;16.05;;
71566;SDS011;59403;47.456;19.120;2022-12-10T14:22:16;39.60;;;18.05;;
71566;SDS011;59403;47.456;19.120;2022-12-10T14:24:47;37.60;;;17.20;;
71566;SDS011;59403;47.456;19.120;2022-12-10T14:27:17;35.72;;;16.48;;
71566;SDS011;59403;47.456;19.120;2022-12-10T14:29:46;41.47;;;18.80;;
71566;SDS011;59403;47.456;19.120;2022-12-10T14:32:14;36.60;;;17.30;;
71566;SDS011;59403;47.456;19.120;2022-12-10T14:34:47;37.38;;;17.12;;
71566;SDS011;59403;47.456;19.120;2022-12-10T14:37:18;34.30;;;16.50;;
71566;SDS011;59403;47.456;19.120;2022-12-10T14:39:49;34.85;;;15.80;;
71566;SDS011;59403;47.456;19.120;2022-12-10T14:42:16;35.10;;;16.75;;
71566;SDS011;59403;47.456;19.120;2022-12-10T14:44:44;34.83;;;16.42;;
71566;SDS011;59403;47.456;19.120;2022-12-10T14:47:12;34.80;;;16.98;;
71566;SDS011;59403;47.456;19.120;2022-12-10T14:49:42;36.47;;;16.23;;
71566;SDS011;59403;47.456;19.120;2022-12-10T14:52:13;33.95;;;16.15;;